createdAt,value
2023-02-03T00:01:52.035Z,9.10
2023-02-03T00:04:18.447Z,4.13
2023-02-03T00:06:45.251Z,7.55
2023-02-03T00:09:11.678Z,5.13
2023-02-03T00:11:38.311Z,11.98
2023-02-03T00:14:05.552Z,11.63
2023-02-03T00:16:32.152Z,6.20
2023-02-03T00:18:58.648Z,5.70
2023-02-03T00:21:25.101Z,4.50
2023-02-03T00:23:51.954Z,8.90
2023-02-03T00:26:18.748Z,7.57
2023-02-03T00:28:45.724Z,11.38
2023-02-03T00:31:18.198Z,8.02
2023-02-03T00:33:44.738Z,7.43
2023-02-03T00:36:12.098Z,10.07
2023-02-03T00:38:38.525Z,6.60
2023-02-03T00:41:05.374Z,5.15
2023-02-03T00:43:31.829Z,9.15
2023-02-03T00:45:58.372Z,9.85
2023-02-03T00:48:25.014Z,4.72
2023-02-03T00:50:51.467Z,6.97
2023-02-03T00:53:17.926Z,6.72
2023-02-03T00:55:44.378Z,5.65
2023-02-03T00:58:10.969Z,7.95
2023-02-03T01:00:37.667Z,8.63
2023-02-03T01:03:04.275Z,6.77
2023-02-03T01:05:30.846Z,12.20
2023-02-03T01:07:57.300Z,12.63
2023-02-03T01:10:23.904Z,8.73
2023-02-03T01:12:50.435Z,5.47
2023-02-03T01:15:16.931Z,11.27
2023-02-03T01:17:43.372Z,8.65
2023-02-03T01:20:12.244Z,4.63
2023-02-03T01:22:38.635Z,5.53
2023-02-03T01:25:05.577Z,5.22
2023-02-03T01:27:32.976Z,3.97
2023-02-03T01:29:59.606Z,6.45
2023-02-03T01:32:26.913Z,7.97
2023-02-03T01:34:53.359Z,6.47
2023-02-03T01:37:19.738Z,6.95
2023-02-03T01:39:46.319Z,7.60
2023-02-03T01:42:14.433Z,4.13
2023-02-03T01:44:47.648Z,4.10
2023-02-03T01:47:41.468Z,3.00
2023-02-03T01:50:19.536Z,6.18
2023-02-03T01:52:56.995Z,7.27
2023-02-03T01:55:37.319Z,8.38
2023-02-03T01:58:12.672Z,3.10
2023-02-03T02:00:39.258Z,5.95
2023-02-03T02:03:06.922Z,3.40
2023-02-03T02:05:46.033Z,6.23
2023-02-03T02:08:13.938Z,9.98
2023-02-03T02:10:40.926Z,6.13
2023-02-03T02:13:07.728Z,5.20
2023-02-03T02:15:40.976Z,7.53
2023-02-03T02:18:23.901Z,7.70
2023-02-03T02:21:15.270Z,7.78
2023-02-03T02:24:10.624Z,4.35
2023-02-03T02:27:15.650Z,4.72
2023-02-03T02:30:18.018Z,10.93
2023-02-03T02:32:53.914Z,5.30
2023-02-03T02:35:38.495Z,6.43
2023-02-03T02:38:13.886Z,16.65
2023-02-03T02:41:04.795Z,5.47
2023-02-03T02:43:52.217Z,4.78
2023-02-03T02:46:27.739Z,5.57
2023-02-03T02:49:07.142Z,4.75
2023-02-03T02:51:35.166Z,3.72
2023-02-03T02:54:05.509Z,2.80
2023-02-03T02:56:34.391Z,4.05
2023-02-03T02:59:03.480Z,5.27
2023-02-03T03:01:30.072Z,4.25
2023-02-03T03:03:58.853Z,6.22
2023-02-03T03:06:31.510Z,7.63
2023-02-03T03:09:15.627Z,4.82
2023-02-03T03:11:51.732Z,4.57
2023-02-03T03:14:20.986Z,2.75
2023-02-03T03:16:54.334Z,5.78
2023-02-03T03:19:28.324Z,4.60
2023-02-03T03:22:02.406Z,4.43
2023-02-03T03:24:33.661Z,4.10
2023-02-03T03:27:22.811Z,3.63
2023-02-03T03:30:02.089Z,5.85
2023-02-03T03:32:32.785Z,3.25
2023-02-03T03:35:01.789Z,2.03
2023-02-03T03:37:38.089Z,10.00
2023-02-03T03:40:18.539Z,5.53
2023-02-03T03:42:51.156Z,2.20
2023-02-03T03:45:26.546Z,6.47
2023-02-03T03:48:16.431Z,7.18
2023-02-03T03:51:05.598Z,5.80
2023-02-03T03:53:35.291Z,3.42
2023-02-03T03:56:06.286Z,4.63
2023-02-03T03:58:33.088Z,4.07
2023-02-03T04:01:06.497Z,6.47
2023-02-03T04:03:39.534Z,6.10
2023-02-03T04:06:06.737Z,4.35
2023-02-03T04:08:33.216Z,5.72
2023-02-03T04:10:59.601Z,4.03
2023-02-03T04:13:25.979Z,2.35
2023-02-03T04:15:52.433Z,2.47
2023-02-03T04:18:18.819Z,2.65
2023-02-03T04:20:45.184Z,3.97
2023-02-03T04:23:11.628Z,3.95
2023-02-03T04:25:38.123Z,3.28
2023-02-03T04:28:06.042Z,3.70
2023-02-03T04:30:32.716Z,4.47
2023-02-03T04:32:59.130Z,4.72
2023-02-03T04:35:25.945Z,1.25
2023-02-03T04:37:52.484Z,4.85
2023-02-03T04:40:19.059Z,1.30
2023-02-03T04:42:45.465Z,3.65
2023-02-03T04:45:12.788Z,5.45
2023-02-03T04:47:39.991Z,3.80
2023-02-03T04:50:07.373Z,3.22
2023-02-03T04:52:33.856Z,2.90
2023-02-03T04:55:00.247Z,1.70
2023-02-03T04:57:26.707Z,2.78
2023-02-03T04:59:53.116Z,2.08
2023-02-03T05:02:19.503Z,8.75
2023-02-03T05:04:45.982Z,3.20
2023-02-03T05:07:12.396Z,3.72
2023-02-03T05:09:38.885Z,3.20
2023-02-03T05:12:05.601Z,4.15
2023-02-03T05:14:32.164Z,3.65
2023-02-03T05:16:58.578Z,3.70
2023-02-03T05:19:25.127Z,4.18
2023-02-03T05:21:51.540Z,4.25
2023-02-03T05:24:18.001Z,5.03
2023-02-03T05:26:44.473Z,2.03
2023-02-03T05:29:11.878Z,2.80
2023-02-03T05:31:38.424Z,2.65
2023-02-03T05:34:04.943Z,2.90
2023-02-03T05:36:31.501Z,5.00
2023-02-03T05:38:58.663Z,16.23
2023-02-03T05:41:43.645Z,3.27
2023-02-03T05:44:10.148Z,5.63
2023-02-03T05:46:36.537Z,3.72
2023-02-03T05:49:03.220Z,3.55
2023-02-03T05:51:29.630Z,5.00
2023-02-03T05:53:56.030Z,3.20
2023-02-03T05:56:22.443Z,6.35
2023-02-03T05:58:51.331Z,10.68
2023-02-03T06:01:19.389Z,4.45
2023-02-03T06:03:46.464Z,2.17
2023-02-03T06:06:13.399Z,7.97
2023-02-03T06:08:39.875Z,4.80
2023-02-03T06:11:06.500Z,3.97
2023-02-03T06:13:32.964Z,2.10
2023-02-03T06:15:59.510Z,5.95
2023-02-03T06:18:25.951Z,5.07
2023-02-03T06:20:52.454Z,4.93
2023-02-03T06:23:19.303Z,3.28
2023-02-03T06:25:48.211Z,3.38
2023-02-03T06:28:14.821Z,4.53
2023-02-03T06:30:41.331Z,5.80
2023-02-03T06:33:07.879Z,6.80
2023-02-03T06:35:34.605Z,4.50
2023-02-03T06:38:01.052Z,3.70
2023-02-03T06:40:27.827Z,3.72
2023-02-03T06:42:54.553Z,5.80
2023-02-03T06:45:21.044Z,7.45
2023-02-03T06:47:47.543Z,4.97
2023-02-03T06:50:16.189Z,7.38
2023-02-03T06:52:42.996Z,3.47
2023-02-03T06:55:10.631Z,5.37
2023-02-03T06:57:43.972Z,2.88
2023-02-03T07:00:13.852Z,8.50
2023-02-03T07:02:41.321Z,4.95
2023-02-03T07:05:08.053Z,5.85
2023-02-03T07:07:34.935Z,4.63
2023-02-03T07:10:02.272Z,6.07
2023-02-03T07:12:28.789Z,6.22
2023-02-03T07:14:55.244Z,4.93
2023-02-03T07:17:21.661Z,4.18
2023-02-03T07:19:48.125Z,3.87
2023-02-03T07:22:14.567Z,5.57
2023-02-03T07:24:40.936Z,6.78
2023-02-03T07:27:07.478Z,1.70
2023-02-03T07:29:33.833Z,4.45
2023-02-03T07:32:02.520Z,7.03
2023-02-03T07:34:29.394Z,5.72
2023-02-03T07:36:57.044Z,4.85
2023-02-03T07:39:23.552Z,6.15
2023-02-03T07:41:50.052Z,4.88
2023-02-03T07:44:16.485Z,3.00
2023-02-03T07:46:44.883Z,3.10
2023-02-03T07:49:12.112Z,3.28
2023-02-03T07:51:38.609Z,5.38
2023-02-03T07:54:05.492Z,3.83
2023-02-03T07:56:33.285Z,2.07
2023-02-03T07:59:00.385Z,7.45
2023-02-03T08:01:27.218Z,5.05
2023-02-03T08:03:55.220Z,7.60
2023-02-03T08:06:22.164Z,5.43
2023-02-03T08:08:48.625Z,5.13
2023-02-03T08:11:15.025Z,4.38
2023-02-03T08:13:41.598Z,9.68
2023-02-03T08:16:08.056Z,7.32
2023-02-03T08:18:34.525Z,5.00
2023-02-03T08:21:03.551Z,7.27
2023-02-03T08:23:30.159Z,6.57
2023-02-03T08:25:56.598Z,4.57
2023-02-03T08:28:23.018Z,6.40
2023-02-03T08:30:49.541Z,10.80
2023-02-03T08:33:16.025Z,4.83
2023-02-03T08:35:46.301Z,5.55
2023-02-03T08:38:12.813Z,3.83
2023-02-03T08:40:39.235Z,4.68
2023-02-03T08:43:05.652Z,8.73
2023-02-03T08:45:32.598Z,6.70
2023-02-03T08:47:59.204Z,6.75
2023-02-03T08:50:25.872Z,5.15
2023-02-03T08:52:52.641Z,7.03
2023-02-03T08:55:19.124Z,5.10
2023-02-03T08:57:45.938Z,5.60
2023-02-03T09:00:13.059Z,5.32
2023-02-03T09:02:39.449Z,4.22
2023-02-03T09:05:06.519Z,8.90
2023-02-03T09:07:33.186Z,5.43
2023-02-03T09:09:59.747Z,4.57
2023-02-03T09:12:26.267Z,5.35
2023-02-03T09:14:52.867Z,5.25
2023-02-03T09:17:19.366Z,6.03
2023-02-03T09:19:45.846Z,5.20
2023-02-03T09:22:13.391Z,3.93
2023-02-03T09:24:39.865Z,6.22
2023-02-03T09:27:06.603Z,7.13
2023-02-03T09:29:33.148Z,8.40
2023-02-03T09:32:00.068Z,5.30
2023-02-03T09:34:26.606Z,4.47
2023-02-03T09:36:53.183Z,6.82
2023-02-03T09:39:19.886Z,4.97
2023-02-03T09:42:05.367Z,5.47
2023-02-03T09:44:59.289Z,6.47
2023-02-03T09:47:29.626Z,10.63
2023-02-03T09:50:01.926Z,6.22
2023-02-03T09:52:35.659Z,3.53
2023-02-03T09:55:16.773Z,9.63
2023-02-03T09:57:51.361Z,9.07
2023-02-03T10:00:23.578Z,6.53
2023-02-03T10:03:03.261Z,4.90
2023-02-03T10:05:32.811Z,5.28
2023-02-03T10:08:20.730Z,5.07
2023-02-03T10:11:20.184Z,6.70
2023-02-03T10:13:52.562Z,8.43
2023-02-03T10:16:51.411Z,7.43
2023-02-03T10:19:23.138Z,7.22
2023-02-03T10:21:57.383Z,3.33
2023-02-03T10:24:57.923Z,5.63
2023-02-03T10:27:25.267Z,5.67
2023-02-03T10:30:04.750Z,3.03
2023-02-03T10:32:31.334Z,5.68
2023-02-03T10:34:58.079Z,5.72
2023-02-03T10:37:32.119Z,4.07
2023-02-03T10:40:00.880Z,6.33
2023-02-03T10:42:50.021Z,6.45
2023-02-03T10:45:16.612Z,8.75
2023-02-03T10:47:48.172Z,6.90
2023-02-03T10:50:17.686Z,6.22
2023-02-03T10:52:44.447Z,8.00
2023-02-03T10:55:26.050Z,4.63
2023-02-03T10:57:54.573Z,6.43
2023-02-03T11:00:34.455Z,4.43
2023-02-03T11:03:22.033Z,5.20
2023-02-03T11:06:13.898Z,3.23
2023-02-03T11:08:43.969Z,7.88
2023-02-03T11:11:15.605Z,6.53
2023-02-03T11:13:42.115Z,4.15
2023-02-03T11:16:16.930Z,6.57
2023-02-03T11:19:00.349Z,3.13
2023-02-03T11:21:29.869Z,9.57
2023-02-03T11:24:22.267Z,7.28
2023-02-03T11:26:55.041Z,5.53
2023-02-03T11:29:28.442Z,6.45
2023-02-03T11:31:57.593Z,7.00
2023-02-03T11:34:37.883Z,5.68
2023-02-03T11:37:37.245Z,4.20
2023-02-03T11:40:06.708Z,6.88
2023-02-03T11:42:35.349Z,4.32
2023-02-03T11:45:14.961Z,7.23
2023-02-03T11:47:53.609Z,5.20
2023-02-03T11:50:48.906Z,5.53
2023-02-03T11:53:27.463Z,4.10
2023-02-03T11:56:08.976Z,3.95
2023-02-03T11:59:12.577Z,5.53
2023-02-03T12:02:26.746Z,5.15
2023-02-03T12:05:06.589Z,5.65
2023-02-03T12:07:51.458Z,7.72
2023-02-03T12:10:36.647Z,7.07
2023-02-03T12:13:24.616Z,5.03
2023-02-03T12:16:07.891Z,4.20
2023-02-03T12:19:01.858Z,3.65
2023-02-03T12:22:05.681Z,1.90
2023-02-03T12:24:48.829Z,4.70
2023-02-03T12:27:24.566Z,7.83
2023-02-03T12:29:59.626Z,4.07
2023-02-03T12:32:40.397Z,6.13
2023-02-03T12:35:21.749Z,7.10
2023-02-03T12:38:30.531Z,2.42
2023-02-03T12:41:00.806Z,8.03
2023-02-03T12:43:53.156Z,5.30
2023-02-03T12:46:24.990Z,10.43
2023-02-03T12:49:24.541Z,3.67
2023-02-03T12:51:56.499Z,7.15
2023-02-03T12:54:47.853Z,6.63
2023-02-03T12:57:22.786Z,5.85
2023-02-03T13:00:06.763Z,8.23
2023-02-03T13:02:44.868Z,7.55
2023-02-03T13:05:32.613Z,7.32
2023-02-03T13:08:13.190Z,6.00
2023-02-03T13:10:50.435Z,4.60
2023-02-03T13:13:25.985Z,6.63
2023-02-03T13:15:54.322Z,8.68
2023-02-03T13:18:33.593Z,6.35
2023-02-03T13:21:00.303Z,7.27
2023-02-03T13:23:27.195Z,7.80
2023-02-03T13:25:56.680Z,7.38
2023-02-03T13:28:23.094Z,9.57
2023-02-03T13:31:13.149Z,8.50
2023-02-03T13:33:48.759Z,8.43
2023-02-03T13:36:51.911Z,6.32
2023-02-03T13:39:51.513Z,9.30
2023-02-03T13:42:28.159Z,10.85
2023-02-03T13:45:09.004Z,8.43
2023-02-03T13:47:35.455Z,10.97
2023-02-03T13:50:16.887Z,13.63
2023-02-03T13:53:08.276Z,6.75
2023-02-03T13:55:44.665Z,7.95
2023-02-03T13:58:23.935Z,9.32
2023-02-03T14:00:50.304Z,13.23
2023-02-03T14:03:43.057Z,16.08
2023-02-03T14:06:40.254Z,9.98
2023-02-03T14:09:45.639Z,15.80
2023-02-03T14:12:50.176Z,13.35
2023-02-03T14:15:33.135Z,14.13
2023-02-03T14:18:03.910Z,13.77
2023-02-03T14:20:31.513Z,11.38
2023-02-03T14:23:06.528Z,9.05
2023-02-03T14:25:39.622Z,11.20
2023-02-03T14:28:12.229Z,12.07
2023-02-03T14:30:57.560Z,14.75
2023-02-03T14:33:55.071Z,15.35
2023-02-03T14:36:27.308Z,10.43
2023-02-03T14:38:55.346Z,10.40
2023-02-03T14:41:52.747Z,13.70
2023-02-03T14:44:39.123Z,11.90
2023-02-03T14:47:11.507Z,12.95
2023-02-03T14:49:44.916Z,11.10
2023-02-03T14:52:20.358Z,13.35
2023-02-03T14:55:11.328Z,17.13
2023-02-03T14:57:44.302Z,17.40
2023-02-03T15:00:20.239Z,10.82
2023-02-03T15:03:11.543Z,17.30
2023-02-03T15:05:39.795Z,16.08
2023-02-03T15:08:32.346Z,10.23
2023-02-03T15:10:59.597Z,13.02
2023-02-03T15:13:32.568Z,13.57
2023-02-03T15:16:02.561Z,20.23
2023-02-03T15:18:32.706Z,15.40
2023-02-03T15:20:59.592Z,11.17
2023-02-03T15:23:31.366Z,12.15
2023-02-03T15:26:03.762Z,18.33
2023-02-03T15:28:30.698Z,12.05
2023-02-03T15:31:06.585Z,12.77
2023-02-03T15:33:36.298Z,13.73
2023-02-03T15:36:12.966Z,15.93
2023-02-03T15:38:46.293Z,15.20
2023-02-03T15:41:23.059Z,11.93
2023-02-03T15:43:53.052Z,17.83
2023-02-03T15:46:33.232Z,11.07
2023-02-03T15:49:11.853Z,15.60
2023-02-03T15:51:51.087Z,9.25
2023-02-03T15:54:45.687Z,10.48
2023-02-03T15:57:38.726Z,9.73
2023-02-03T16:00:28.782Z,10.93
2023-02-03T16:02:57.963Z,7.05
2023-02-03T16:05:28.275Z,16.67
2023-02-03T16:07:54.956Z,10.40
2023-02-03T16:10:30.018Z,10.75
2023-02-03T16:13:22.712Z,10.83
2023-02-03T16:16:16.159Z,10.60
2023-02-03T16:18:51.922Z,17.98
2023-02-03T16:21:37.082Z,18.75
2023-02-03T16:24:05.698Z,12.40
2023-02-03T16:26:34.337Z,15.93
2023-02-03T16:29:22.604Z,13.60
2023-02-03T16:32:07.998Z,22.65
2023-02-03T16:34:52.902Z,15.07
2023-02-03T16:38:01.637Z,19.05
2023-02-03T16:40:46.508Z,11.43
2023-02-03T16:43:33.402Z,10.70
2023-02-03T16:46:19.049Z,16.17
2023-02-03T16:49:04.641Z,13.23
2023-02-03T16:51:39.060Z,17.08
2023-02-03T16:54:06.904Z,14.37
2023-02-03T16:56:33.473Z,14.15
2023-02-03T16:58:59.935Z,12.57
2023-02-03T17:01:26.411Z,9.90
2023-02-03T17:03:52.850Z,10.15
2023-02-03T17:06:20.009Z,10.73
2023-02-03T17:08:46.490Z,8.38
2023-02-03T17:11:19.934Z,14.43
2023-02-03T17:13:47.585Z,11.25
2023-02-03T17:16:16.965Z,15.63
2023-02-03T17:18:43.854Z,15.37
2023-02-03T17:21:13.031Z,14.27
2023-02-03T17:23:40.007Z,15.05
2023-02-03T17:26:07.183Z,14.30
2023-02-03T17:28:34.007Z,13.80
2023-02-03T17:31:06.453Z,14.20
2023-02-03T17:33:34.403Z,10.32
2023-02-03T17:36:04.688Z,14.45
2023-02-03T17:38:32.439Z,14.73
2023-02-03T17:54:40.828Z,18.05
2023-02-03T17:57:07.405Z,16.23
2023-02-03T17:59:35.550Z,12.43
2023-02-03T18:02:02.017Z,20.05
2023-02-03T18:04:28.667Z,14.07
2023-02-03T18:06:55.257Z,11.70
2023-02-03T18:09:21.664Z,21.97
2023-02-03T18:11:48.124Z,10.90
2023-02-03T18:14:15.048Z,11.13
2023-02-03T18:16:42.469Z,13.20
2023-02-03T18:19:13.534Z,10.18
2023-02-03T18:21:41.033Z,12.23
2023-02-03T18:24:09.359Z,11.85
2023-02-03T18:26:44.286Z,11.65
2023-02-03T18:29:11.950Z,14.18
2023-02-03T18:31:39.642Z,10.77
2023-02-03T18:34:06.689Z,11.77
2023-02-03T18:36:33.304Z,9.70
2023-02-03T18:38:59.840Z,15.93
2023-02-03T18:41:26.805Z,14.00
2023-02-03T18:43:53.555Z,15.43
2023-02-03T18:46:28.255Z,16.07
2023-02-03T18:48:56.138Z,17.42
2023-02-03T18:51:23.716Z,11.88
2023-02-03T18:53:50.744Z,11.98
2023-02-03T18:56:23.398Z,12.20
2023-02-03T18:58:49.967Z,7.73
2023-02-03T19:01:30.720Z,15.25
2023-02-03T19:03:59.510Z,15.10
2023-02-03T19:06:27.536Z,16.00
2023-02-03T19:08:54.132Z,10.00
2023-02-03T19:11:20.751Z,17.27
2023-02-03T19:13:47.258Z,16.42
2023-02-03T19:16:16.847Z,16.50
2023-02-03T19:18:44.850Z,11.88
2023-02-03T19:21:12.512Z,17.23
2023-02-03T19:23:40.532Z,11.93
2023-02-03T19:26:07.945Z,12.63
2023-02-03T19:28:35.419Z,15.82
2023-02-03T19:31:08.050Z,11.65
2023-02-03T19:33:35.686Z,13.98
2023-02-03T19:36:02.299Z,15.47
2023-02-03T19:38:28.716Z,9.15
2023-02-03T19:40:55.250Z,15.25
2023-02-03T19:43:21.738Z,12.23
2023-02-03T19:45:48.256Z,9.75
2023-02-03T19:48:14.692Z,7.93
2023-02-03T19:50:45.805Z,17.02
2023-02-03T19:53:17.473Z,16.95
2023-02-03T19:55:45.088Z,11.40
2023-02-03T19:58:14.366Z,16.33
2023-02-03T20:00:41.736Z,13.67
2023-02-03T20:03:08.252Z,20.95
2023-02-03T20:05:36.085Z,15.13
2023-02-03T20:08:03.069Z,12.27
2023-02-03T20:10:29.916Z,16.25
2023-02-03T20:12:56.593Z,17.63
2023-02-03T20:15:23.054Z,12.40
2023-02-03T20:17:49.555Z,15.18
2023-02-03T20:20:18.671Z,14.50
2023-02-03T20:22:46.875Z,10.73
2023-02-03T20:25:13.289Z,8.73
2023-02-03T20:27:39.813Z,13.30
2023-02-03T20:30:06.968Z,9.48
2023-02-03T20:32:37.148Z,12.18
2023-02-03T20:35:06.544Z,11.77
2023-02-03T20:37:33.352Z,13.07
2023-02-03T20:39:59.918Z,11.98
2023-02-03T20:42:26.520Z,18.45
2023-02-03T20:44:53.048Z,21.73
2023-02-03T20:47:21.271Z,12.45
2023-02-03T20:49:49.461Z,14.67
2023-02-03T20:52:18.227Z,11.73
2023-02-03T20:54:44.886Z,14.07
2023-02-03T20:57:14.711Z,15.40
2023-02-03T20:59:41.371Z,10.43
2023-02-03T21:02:18.247Z,10.00
2023-02-03T21:04:57.660Z,12.18
2023-02-03T21:07:27.349Z,16.50
2023-02-03T21:09:54.628Z,15.18
2023-02-03T21:12:21.152Z,12.65
2023-02-03T21:14:49.000Z,9.23
2023-02-03T21:17:27.115Z,9.77
2023-02-03T21:19:54.875Z,15.55
2023-02-03T21:22:27.250Z,13.15
2023-02-03T21:25:01.348Z,10.70
2023-02-03T21:27:31.410Z,12.80
2023-02-03T21:30:00.255Z,16.02
2023-02-03T21:32:40.136Z,9.27
2023-02-03T21:35:25.710Z,11.70
2023-02-03T21:37:57.000Z,16.25
2023-02-03T21:40:27.631Z,11.93
2023-02-03T21:42:55.024Z,9.77
2023-02-03T21:45:28.181Z,10.88
2023-02-03T21:47:58.316Z,12.98
2023-02-03T21:50:36.816Z,12.00
2023-02-03T21:53:26.329Z,11.47
2023-02-03T21:55:53.475Z,15.55
2023-02-03T21:58:34.742Z,10.50
2023-02-03T22:01:06.512Z,15.85
2023-02-03T22:03:43.377Z,9.57
2023-02-03T22:06:12.471Z,20.50
2023-02-03T22:08:42.338Z,10.77
2023-02-03T22:11:09.434Z,8.10
2023-02-03T22:13:36.144Z,16.58
2023-02-03T22:16:03.985Z,15.60
2023-02-03T22:18:30.822Z,8.37
2023-02-03T22:20:57.523Z,10.20
2023-02-03T22:23:24.094Z,13.43
2023-02-03T22:25:50.649Z,11.13
2023-02-03T22:28:17.392Z,13.95
2023-02-03T22:30:43.951Z,13.07
2023-02-03T22:33:10.403Z,10.57
2023-02-03T22:35:36.909Z,15.13
2023-02-03T22:38:03.579Z,10.27
2023-02-03T22:40:30.345Z,15.68
2023-02-03T22:42:56.875Z,13.30
2023-02-03T22:45:23.275Z,14.73
2023-02-03T22:47:49.738Z,14.93
2023-02-03T22:50:17.421Z,10.02
2023-02-03T22:52:46.930Z,13.13
2023-02-03T22:55:13.501Z,12.97
2023-02-03T22:57:41.227Z,10.15
2023-02-03T23:00:12.125Z,14.75
2023-02-03T23:02:39.236Z,12.68
2023-02-03T23:05:07.653Z,9.05
2023-02-03T23:07:34.243Z,12.70
2023-02-03T23:10:01.026Z,16.25
2023-02-03T23:12:27.611Z,11.30
2023-02-03T23:14:54.024Z,9.05
2023-02-03T23:17:20.529Z,11.88
2023-02-03T23:19:46.992Z,10.50
2023-02-03T23:22:13.602Z,10.55
2023-02-03T23:24:39.999Z,12.65
2023-02-03T23:27:07.411Z,15.32
2023-02-03T23:29:34.170Z,13.50
2023-02-03T23:32:00.636Z,16.23
2023-02-03T23:34:45.905Z,8.73
2023-02-03T23:37:12.430Z,11.40
2023-02-03T23:39:38.813Z,10.93
2023-02-03T23:42:05.505Z,10.95
2023-02-03T23:44:31.920Z,12.53
2023-02-03T23:46:58.542Z,8.55
2023-02-03T23:49:25.058Z,11.50
2023-02-03T23:51:51.426Z,13.32
2023-02-03T23:54:17.859Z,7.57
2023-02-03T23:56:44.356Z,17.33
2023-02-03T23:59:11.925Z,12.13
